Historyczne dane pomiarowe

Dodano dane terminowe – wersja testowa.

Dane z okresu 1951-2019

Wersja bazy: 1.34 [2019-03-16, lista zmian], aktualizacja planowana na 2019-04-15

Dane meteo z obszaru Polski uzyskane na podstawie danych udostępnionych przez Instytut Meteorologii i Gospodarki Wodnej – Państwowy Instytut Badawczy.

 

Wybierz Datę:    

       

TemperaturaWilgotnośćWiatrCiśnienieOpadyŚniegCzas trwania zjawisk
 Stacja t tx tn tng RH VA  wxwx mslp ppp RRR   cm mm wxwxwxwxwxwxwx
1968-08-13 14.8 18.0 8.8- 70.3- 7.0 3.3---- 0.0------------
1968-08-14 16.5 22.5 5.3- 66.0- 2.7 2.3---- 0.0------------
1968-08-15 15.1 21.4 12.4- 78.5- 7.0 3.7---- 1.1------------
1968-08-16 14.5 18.9 9.1- 70.8- 7.3 4.3---- 0.6------------
1968-08-17 18.4 22.6 11.8- 67.5- 4.3 4.0---- 3.1------------
1968-08-18 15.6 19.9 13.9- 70.8- 4.7 4.3---- 0.0------------
1968-08-19 14.3 18.9 6.4- 80.5- 7.3 0.7---- 1.2------------
1968-08-20 12.5 16.3 10.8- 87.8- 8.0 1.7---- 2.8------------
1968-08-21 12.2 16.0 10.1- 82.8- 6.0 2.3---- 0.2------------
1968-08-22 15.4 21.4 6.3- 71.0- 1.0 1.0---- 0.0------------
1968-08-23 20.7 27.1 13.4- 71.0- 0.0 1.7---- 0.0------------
1968-08-24 20.9 26.2 14.1- 67.3- 1.7 3.7---- 0.0------------
1968-08-25 20.2 25.0 15.2- 78.8- 4.7 1.7---- 0.8------------
1968-08-26 18.0 23.0 14.0- 85.3- 6.7 2.3---- 6.8------------
1968-08-27 18.2 26.0 13.0- 87.5- 2.7 0.7---- 0.0------------
1968-08-28 20.1 27.5 12.3- 75.8- 0.3 3.0---- 15.4------------
1968-08-29 19.3 26.6 10.6- 81.0- 1.7 1.7---- 0.0------------
1968-08-30 20.7 26.0 13.8- 76.0- 1.3 2.3---- 0.0------------
1968-08-31 21.3 28.3 12.3- 71.8- 0.3 2.3---- 0.0------------
1968-09-01 19.7 26.5 13.1- 80.8- 4.7 3.3---- 1.7------------
1968-09-02 18.8 26.4 13.3- 85.0- 4.3 0.7---- 0.0------------
1968-09-03 19.5 26.4 11.0- 78.3- 0.0 0.7---- 0.0------------
1968-09-04 19.5 26.9 13.7- 69.5- 5.0 1.7---- 0.0------------
1968-09-05 19.7 28.4 10.4- 61.3- 2.7 2.0---- 0.0------------
1968-09-06 16.5 26.4 10.2- 77.0- 0.0 2.0---- 0.0------------
1968-09-07 17.5 26.0 8.5- 71.0- 0.3 1.0---- 0.0------------
1968-09-08 17.7 24.9 9.2- 71.8- 1.3 1.3---- 0.0------------
1968-09-09 12.1 17.5 7.2- 80.3- 4.7 1.3---- 0.0------------
1968-09-10 8.2 17.9 1.2- 80.8- 0.0 1.3---- 0.0------------
1968-09-11 7.4 18.2 -1.5- 77.3- 2.0 0.3---- 0.0------------
5582.4 ms

 

Źródłem pochodzenia danych jest Instytut Meteorologii i Gospodarki Wodnej – Państwowy Instytut Badawczy. Dane Instytutu Meteorologii i Gospodarki Wodnej – Państwowego Instytutu Badawczego zostały przetworzone.

Dane źródłowe można odnaleźć na stronie https://dane.imgw.pl